VOL7OR PADK-PANC
Flight info
| Callsign | VOL7OR |
|---|---|
| Flight time | N/A |
| Altitude | 33000 |
| Route | TTAUN4 LONOK INOTY BILBE/N0431F350 DLG Q45 FAGIN J511 NONDA SNAAG NEELL7 |
| Aircraft | E195/M-SDE3GILORVW/S |
Departure
| Time | 2026-04-26 07:52 |
|---|---|
| Airport | Adak Airport (PADK) |
Arrival
| Time | N/A |
|---|---|
| Airport | Ted Stevens Anchorage International Airport (PANC) |
| Time | Latitude | Longitude | Altitude | Speed | Heading |
|---|---|---|---|---|---|
| 2026-04-26 07:36 | 51.87396 | -176.64594 | 25 ft | 0 kts | 235° |
| 2026-04-26 07:44 | 51.87394 | -176.64599 | 19 ft | 2 kts | 240° |
| 2026-04-26 07:44 | 51.87395 | -176.64634 | 28 ft | 4 kts | 288° |
| 2026-04-26 07:44 | 51.87422 | -176.64648 | 30 ft | 6 kts | 10° |
| 2026-04-26 07:44 | 51.87474 | -176.64620 | 25 ft | 10 kts | 18° |
| 2026-04-26 07:45 | 51.87554 | -176.64579 | 27 ft | 14 kts | 17° |
| 2026-04-26 07:45 | 51.87654 | -176.64530 | 27 ft | 14 kts | 19° |
| 2026-04-26 07:45 | 51.87732 | -176.64485 | 25 ft | 11 kts | 19° |
| 2026-04-26 07:45 | 51.87799 | -176.64449 | 27 ft | 10 kts | 18° |
| 2026-04-26 07:46 | 51.87862 | -176.64416 | 25 ft | 9 kts | 17° |
| 2026-04-26 07:46 | 51.87924 | -176.64385 | 27 ft | 10 kts | 17° |
| 2026-04-26 07:46 | 51.87992 | -176.64352 | 25 ft | 10 kts | 17° |
| 2026-04-26 07:46 | 51.88064 | -176.64343 | 25 ft | 11 kts | 358° |
| 2026-04-26 07:47 | 51.88139 | -176.64345 | 25 ft | 11 kts | 1° |
| 2026-04-26 07:47 | 51.88216 | -176.64340 | 27 ft | 11 kts | 2° |
| 2026-04-26 07:47 | 51.88294 | -176.64333 | 27 ft | 12 kts | 10° |
| 2026-04-26 07:47 | 51.88357 | -176.64247 | 27 ft | 13 kts | 62° |
| 2026-04-26 07:48 | 51.88403 | -176.64115 | 27 ft | 14 kts | 59° |
| 2026-04-26 07:48 | 51.88454 | -176.63979 | 25 ft | 15 kts | 60° |
| 2026-04-26 07:48 | 51.88507 | -176.63831 | 26 ft | 15 kts | 60° |
| 2026-04-26 07:48 | 51.88561 | -176.63676 | 25 ft | 17 kts | 59° |
| 2026-04-26 07:49 | 51.88624 | -176.63504 | 25 ft | 18 kts | 59° |
| 2026-04-26 07:49 | 51.88690 | -176.63313 | 23 ft | 21 kts | 60° |
| 2026-04-26 07:49 | 51.88764 | -176.63108 | 24 ft | 22 kts | 59° |
| 2026-04-26 07:50 | 51.88883 | -176.62804 | 24 ft | 2 kts | 83° |
| 2026-04-26 07:50 | 51.88875 | -176.62795 | 26 ft | 1 kts | 153° |
| 2026-04-26 07:50 | 51.88859 | -176.62817 | 26 ft | 4 kts | 238° |
| 2026-04-26 07:50 | 51.88856 | -176.62824 | 26 ft | 0 kts | 241° |
| 2026-04-26 07:51 | 51.88833 | -176.62898 | 23 ft | 30 kts | 244° |
| 2026-04-26 07:51 | 51.88634 | -176.63494 | 27 ft | 88 kts | 240° |
| 2026-04-26 07:51 | 51.88246 | -176.64604 | 55 ft | 134 kts | 249° |
| 2026-04-26 07:52 | 51.87784 | -176.65966 | 746 ft | 142 kts | 250° |
| 2026-04-26 07:52 | 51.87317 | -176.67380 | 1643 ft | 145 kts | 252° |
| 2026-04-26 07:52 | 51.86913 | -176.68950 | 2300 ft | 158 kts | 261° |
| 2026-04-26 07:52 | 51.86607 | -176.70752 | 2988 ft | 175 kts | 261° |
| 2026-04-26 07:53 | 51.86260 | -176.72757 | 3733 ft | 197 kts | 261° |
| 2026-04-26 07:53 | 51.85890 | -176.74975 | 4689 ft | 206 kts | 261° |
| 2026-04-26 07:53 | 51.85515 | -176.77219 | 5661 ft | 217 kts | 262° |
| 2026-04-26 07:53 | 51.85160 | -176.79677 | 6445 ft | 231 kts | 263° |
| 2026-04-26 07:54 | 51.84761 | -176.82216 | 7301 ft | 235 kts | 262° |
| 2026-04-26 07:54 | 51.84338 | -176.84832 | 7595 ft | 242 kts | 261° |
| 2026-04-26 07:54 | 51.83988 | -176.87494 | 8004 ft | 241 kts | 273° |
| 2026-04-26 07:54 | 51.84427 | -176.90032 | 8420 ft | 238 kts | 305° |
| 2026-04-26 07:55 | 51.85753 | -176.91638 | 8850 ft | 248 kts | 335° |
| 2026-04-26 07:55 | 51.87465 | -176.92248 | 9288 ft | 256 kts | 343° |
| 2026-04-26 07:55 | 51.89211 | -176.92715 | 9730 ft | 258 kts | 342° |
| 2026-04-26 07:55 | 51.90974 | -176.93336 | 10058 ft | 264 kts | 339° |
| 2026-04-26 07:56 | 51.92801 | -176.94098 | 10149 ft | 279 kts | 339° |
| 2026-04-26 07:56 | 51.94709 | -176.94882 | 10508 ft | 284 kts | 339° |
| 2026-04-26 07:56 | 51.96668 | -176.95506 | 10914 ft | 295 kts | 352° |
| 2026-04-26 07:56 | 51.98724 | -176.94788 | 11324 ft | 316 kts | 18° |
| 2026-04-26 07:57 | 52.00502 | -176.92540 | 11718 ft | 338 kts | 44° |
| 2026-04-26 07:57 | 52.01630 | -176.89100 | 12134 ft | 355 kts | 69° |
| 2026-04-26 07:57 | 52.01868 | -176.85127 | 12530 ft | 366 kts | 94° |
| 2026-04-26 07:57 | 52.01291 | -176.81102 | 12906 ft | 369 kts | 107° |
| 2026-04-26 07:58 | 52.00508 | -176.77130 | 13312 ft | 371 kts | 105° |
| 2026-04-26 07:58 | 52.00085 | -176.72997 | 13688 ft | 371 kts | 92° |
| 2026-04-26 07:58 | 52.00043 | -176.68807 | 14107 ft | 371 kts | 86° |
| 2026-04-26 07:58 | 52.00214 | -176.64613 | 14497 ft | 373 kts | 82° |
| 2026-04-26 07:59 | 52.00511 | -176.60428 | 14892 ft | 375 kts | 80° |
| 2026-04-26 07:59 | 52.00861 | -176.56217 | 15328 ft | 377 kts | 80° |
| 2026-04-26 07:59 | 52.01334 | -176.52034 | 15739 ft | 378 kts | 74° |
| 2026-04-26 07:59 | 52.01923 | -176.47926 | 16155 ft | 381 kts | 75° |
| 2026-04-26 08:00 | 52.02523 | -176.43730 | 16613 ft | 382 kts | 74° |
| 2026-04-26 08:00 | 52.03143 | -176.39522 | 17029 ft | 385 kts | 75° |
| 2026-04-26 08:00 | 52.03764 | -176.35269 | 17440 ft | 387 kts | 75° |
| 2026-04-26 08:00 | 52.04385 | -176.30999 | 17845 ft | 389 kts | 75° |
| 2026-04-26 08:01 | 52.05007 | -176.26718 | 18250 ft | 391 kts | 75° |
| 2026-04-26 08:01 | 52.05634 | -176.22404 | 18647 ft | 393 kts | 75° |
| 2026-04-26 08:01 | 52.06260 | -176.18057 | 19057 ft | 396 kts | 76° |
| 2026-04-26 08:01 | 52.06879 | -176.13753 | 19478 ft | 397 kts | 76° |
| 2026-04-26 08:02 | 52.07518 | -176.09318 | 19884 ft | 399 kts | 76° |
| 2026-04-26 08:02 | 52.08138 | -176.04967 | 20260 ft | 401 kts | 76° |
| 2026-04-26 08:02 | 52.08771 | -176.00539 | 20632 ft | 403 kts | 76° |
| 2026-04-26 08:02 | 52.09402 | -175.96101 | 21029 ft | 405 kts | 76° |
| 2026-04-26 08:03 | 52.10036 | -175.91630 | 21415 ft | 407 kts | 76° |
| 2026-04-26 08:03 | 52.10673 | -175.87131 | 21817 ft | 409 kts | 76° |
| 2026-04-26 08:03 | 52.11308 | -175.82617 | 22205 ft | 411 kts | 77° |
| 2026-04-26 08:03 | 52.11947 | -175.78083 | 22530 ft | 413 kts | 77° |
| 2026-04-26 08:04 | 52.12587 | -175.73511 | 22853 ft | 414 kts | 77° |
| 2026-04-26 08:04 | 52.13227 | -175.68934 | 23174 ft | 417 kts | 77° |
| 2026-04-26 08:04 | 52.13861 | -175.64386 | 23514 ft | 419 kts | 77° |
| 2026-04-26 08:04 | 52.14503 | -175.59749 | 23830 ft | 421 kts | 78° |
| 2026-04-26 08:05 | 52.15275 | -175.55142 | 24127 ft | 424 kts | 70° |
| 2026-04-26 08:05 | 52.16520 | -175.50794 | 24429 ft | 425 kts | 59° |
| 2026-04-26 08:05 | 52.18224 | -175.46852 | 24713 ft | 427 kts | 49° |
| 2026-04-26 08:05 | 52.20197 | -175.43211 | 25012 ft | 429 kts | 46° |
| 2026-04-26 08:06 | 52.22237 | -175.39645 | 25278 ft | 431 kts | 45° |
| 2026-04-26 08:06 | 52.24241 | -175.35983 | 25556 ft | 434 kts | 51° |
| 2026-04-26 08:06 | 52.26123 | -175.32115 | 25799 ft | 437 kts | 50° |
| 2026-04-26 08:06 | 52.27988 | -175.28259 | 26072 ft | 439 kts | 52° |
| 2026-04-26 08:07 | 52.29872 | -175.24313 | 26335 ft | 442 kts | 52° |
| 2026-04-26 08:07 | 52.31763 | -175.20346 | 26599 ft | 444 kts | 52° |
| 2026-04-26 08:07 | 52.33662 | -175.16355 | 26852 ft | 446 kts | 52° |
| 2026-04-26 08:07 | 52.35569 | -175.12342 | 27101 ft | 448 kts | 52° |
| 2026-04-26 08:08 | 52.37492 | -175.08297 | 27343 ft | 451 kts | 52° |
| 2026-04-26 08:08 | 52.39417 | -175.04234 | 27582 ft | 453 kts | 53° |
| 2026-04-26 08:08 | 52.41351 | -175.00149 | 27818 ft | 455 kts | 53° |
| 2026-04-26 08:08 | 52.43265 | -174.96101 | 28050 ft | 457 kts | 53° |
| 2026-04-26 08:09 | 52.45212 | -174.91976 | 28281 ft | 459 kts | 53° |
| 2026-04-26 08:09 | 52.47162 | -174.87836 | 28508 ft | 461 kts | 53° |
| 2026-04-26 08:09 | 52.49130 | -174.83657 | 28712 ft | 462 kts | 53° |
| 2026-04-26 08:09 | 52.51092 | -174.79479 | 28883 ft | 464 kts | 54° |
| 2026-04-26 08:10 | 52.53068 | -174.75264 | 29036 ft | 466 kts | 54° |
| 2026-04-26 08:10 | 52.55046 | -174.71039 | 29206 ft | 468 kts | 54° |
| 2026-04-26 08:10 | 52.57000 | -174.66831 | 29359 ft | 469 kts | 55° |
| 2026-04-26 08:10 | 52.59013 | -174.62608 | 29524 ft | 471 kts | 52° |
| 2026-04-26 08:11 | 52.61088 | -174.58434 | 29668 ft | 473 kts | 52° |
| 2026-04-26 08:11 | 52.63181 | -174.54240 | 29815 ft | 474 kts | 52° |
| 2026-04-26 08:11 | 52.67403 | -174.45775 | 29953 ft | 481 kts | 52° |
| 2026-04-26 08:12 | 52.69529 | -174.41502 | 30109 ft | 481 kts | 52° |
| 2026-04-26 08:12 | 52.71645 | -174.37242 | 30310 ft | 481 kts | 53° |
| 2026-04-26 08:12 | 52.73765 | -174.32968 | 30480 ft | 481 kts | 53° |
| 2026-04-26 08:12 | 52.75852 | -174.28752 | 30659 ft | 480 kts | 53° |
| 2026-04-26 08:13 | 52.77962 | -174.24480 | 30817 ft | 480 kts | 53° |
| 2026-04-26 08:13 | 52.80074 | -174.20201 | 30979 ft | 480 kts | 53° |
| 2026-04-26 08:13 | 52.82184 | -174.15916 | 31138 ft | 480 kts | 53° |
| 2026-04-26 08:13 | 52.84287 | -174.11637 | 31296 ft | 480 kts | 53° |
| 2026-04-26 08:14 | 52.88437 | -174.03170 | 31452 ft | 474 kts | 53° |
| 2026-04-26 08:14 | 52.92592 | -173.94673 | 31495 ft | 481 kts | 54° |
| 2026-04-26 08:15 | 52.96822 | -173.85985 | 31483 ft | 488 kts | 54° |
| 2026-04-26 08:15 | 53.01073 | -173.77230 | 31482 ft | 485 kts | 54° |
| 2026-04-26 08:16 | 53.05304 | -173.68481 | 31489 ft | 487 kts | 54° |
| 2026-04-26 08:16 | 53.09537 | -173.59698 | 31491 ft | 486 kts | 54° |
| 2026-04-26 08:17 | 53.13732 | -173.50963 | 31494 ft | 487 kts | 54° |
| 2026-04-26 08:17 | 53.17948 | -173.42154 | 31499 ft | 487 kts | 55° |
| 2026-04-26 08:18 | 53.22160 | -173.33325 | 31502 ft | 487 kts | 55° |
| 2026-04-26 08:18 | 53.26372 | -173.24464 | 31522 ft | 487 kts | 55° |
| 2026-04-26 08:19 | 53.30553 | -173.15637 | 31527 ft | 488 kts | 55° |
| 2026-04-26 08:19 | 53.34757 | -173.06727 | 31532 ft | 488 kts | 56° |
| 2026-04-26 08:20 | 53.38952 | -172.97807 | 31545 ft | 487 kts | 56° |
| 2026-04-26 08:20 | 53.43143 | -172.88863 | 31560 ft | 488 kts | 56° |
| 2026-04-26 08:21 | 53.47323 | -172.79908 | 31568 ft | 487 kts | 56° |
| 2026-04-26 08:21 | 53.51461 | -172.71016 | 31583 ft | 487 kts | 56° |
| 2026-04-26 08:22 | 53.55624 | -172.62035 | 31597 ft | 487 kts | 57° |
| 2026-04-26 08:22 | 53.59784 | -172.53030 | 31604 ft | 487 kts | 57° |
| 2026-04-26 08:23 | 53.63935 | -172.44010 | 31625 ft | 486 kts | 57° |
| 2026-04-26 08:23 | 53.68046 | -172.35049 | 31638 ft | 487 kts | 57° |
| 2026-04-26 08:24 | 53.72178 | -172.26006 | 31657 ft | 487 kts | 57° |
| 2026-04-26 08:24 | 53.76309 | -172.16933 | 31663 ft | 487 kts | 57° |
| 2026-04-26 08:25 | 53.80424 | -172.07867 | 31685 ft | 486 kts | 57° |
| 2026-04-26 08:25 | 53.84500 | -171.98850 | 31695 ft | 485 kts | 57° |
| 2026-04-26 08:26 | 53.88595 | -171.89758 | 31707 ft | 485 kts | 58° |
| 2026-04-26 08:26 | 53.92688 | -171.80638 | 31728 ft | 486 kts | 58° |
| 2026-04-26 08:27 | 53.96765 | -171.71521 | 31742 ft | 485 kts | 58° |
| 2026-04-26 08:27 | 54.00806 | -171.62447 | 31759 ft | 485 kts | 58° |
| 2026-04-26 08:28 | 54.04866 | -171.53302 | 31765 ft | 484 kts | 58° |
| 2026-04-26 08:28 | 54.08910 | -171.44162 | 31784 ft | 483 kts | 58° |
| 2026-04-26 08:29 | 54.12941 | -171.35014 | 31797 ft | 483 kts | 58° |
| 2026-04-26 08:29 | 54.16936 | -171.25912 | 31818 ft | 482 kts | 58° |
| 2026-04-26 08:30 | 54.20946 | -171.16746 | 31830 ft | 482 kts | 58° |
| 2026-04-26 08:30 | 54.24950 | -171.07561 | 31847 ft | 481 kts | 58° |
| 2026-04-26 08:31 | 54.28943 | -170.98365 | 31859 ft | 481 kts | 59° |
| 2026-04-26 08:31 | 54.32898 | -170.89224 | 31869 ft | 481 kts | 59° |
| 2026-04-26 08:32 | 54.36870 | -170.80011 | 31882 ft | 480 kts | 59° |
| 2026-04-26 08:32 | 54.40830 | -170.70790 | 31895 ft | 480 kts | 59° |
| 2026-04-26 08:33 | 54.44783 | -170.61550 | 31912 ft | 480 kts | 59° |
| 2026-04-26 08:33 | 54.48729 | -170.52292 | 31920 ft | 480 kts | 59° |
| 2026-04-26 08:34 | 54.52642 | -170.43082 | 31938 ft | 480 kts | 59° |
| 2026-04-26 08:34 | 54.56578 | -170.33782 | 31944 ft | 480 kts | 59° |
| 2026-04-26 08:35 | 54.60498 | -170.24479 | 31956 ft | 480 kts | 60° |
| 2026-04-26 08:35 | 54.64384 | -170.15225 | 31964 ft | 479 kts | 60° |
| 2026-04-26 08:36 | 54.68286 | -170.05900 | 31975 ft | 479 kts | 60° |
| 2026-04-26 08:36 | 54.72178 | -169.96565 | 31985 ft | 479 kts | 60° |
| 2026-04-26 08:37 | 54.76063 | -169.87209 | 31995 ft | 478 kts | 60° |
| 2026-04-26 08:37 | 54.79936 | -169.77849 | 32005 ft | 478 kts | 60° |
| 2026-04-26 08:38 | 54.83777 | -169.68530 | 32006 ft | 477 kts | 61° |
| 2026-04-26 08:38 | 54.87628 | -169.59147 | 32030 ft | 477 kts | 61° |
| 2026-04-26 08:39 | 54.91472 | -169.49750 | 32026 ft | 477 kts | 61° |
| 2026-04-26 08:39 | 54.95283 | -169.40398 | 32044 ft | 477 kts | 61° |
| 2026-04-26 08:40 | 54.99107 | -169.30980 | 32044 ft | 476 kts | 61° |
| 2026-04-26 08:40 | 55.02926 | -169.21540 | 32060 ft | 476 kts | 61° |
| 2026-04-26 08:41 | 55.06732 | -169.12090 | 32062 ft | 476 kts | 62° |
| 2026-04-26 08:41 | 55.10501 | -169.02697 | 32077 ft | 476 kts | 62° |
| 2026-04-26 08:42 | 55.14285 | -168.93234 | 32080 ft | 475 kts | 62° |
| 2026-04-26 08:42 | 55.18063 | -168.83747 | 32087 ft | 475 kts | 62° |
| 2026-04-26 08:43 | 55.21830 | -168.74254 | 32098 ft | 475 kts | 62° |
| 2026-04-26 08:43 | 55.25589 | -168.64743 | 32096 ft | 474 kts | 62° |
| 2026-04-26 08:44 | 55.29311 | -168.55287 | 32111 ft | 475 kts | 62° |
| 2026-04-26 08:44 | 55.33053 | -168.45745 | 32111 ft | 474 kts | 63° |
| 2026-04-26 08:45 | 55.36790 | -168.36179 | 32123 ft | 475 kts | 63° |
| 2026-04-26 08:45 | 55.40522 | -168.26590 | 32125 ft | 475 kts | 63° |
| 2026-04-26 08:46 | 55.44221 | -168.17050 | 32131 ft | 475 kts | 63° |
| 2026-04-26 08:46 | 55.47940 | -168.07418 | 32136 ft | 475 kts | 63° |
| 2026-04-26 08:47 | 55.51651 | -167.97771 | 32143 ft | 475 kts | 63° |
| 2026-04-26 08:47 | 55.55353 | -167.88107 | 32151 ft | 475 kts | 63° |
| 2026-04-26 08:48 | 55.59023 | -167.78490 | 32149 ft | 475 kts | 63° |
| 2026-04-26 08:48 | 55.62709 | -167.68792 | 32165 ft | 475 kts | 63° |
| 2026-04-26 08:49 | 55.66388 | -167.59077 | 32159 ft | 475 kts | 63° |
| 2026-04-26 08:49 | 55.70054 | -167.49353 | 32175 ft | 475 kts | 64° |
| 2026-04-26 08:50 | 55.73712 | -167.39614 | 32177 ft | 474 kts | 64° |
| 2026-04-26 08:50 | 55.77335 | -167.29930 | 32187 ft | 474 kts | 64° |
| 2026-04-26 08:51 | 55.82790 | -167.15277 | 32193 ft | 473 kts | 64° |
| 2026-04-26 08:52 | 55.86413 | -167.05496 | 32204 ft | 473 kts | 64° |
| 2026-04-26 08:52 | 55.90022 | -166.95712 | 32209 ft | 472 kts | 64° |
| 2026-04-26 08:53 | 55.93598 | -166.85983 | 32210 ft | 472 kts | 64° |
| 2026-04-26 08:53 | 55.97187 | -166.76178 | 32225 ft | 472 kts | 65° |
| 2026-04-26 08:54 | 56.00773 | -166.66342 | 32227 ft | 472 kts | 65° |
| 2026-04-26 08:54 | 56.04347 | -166.56495 | 32240 ft | 472 kts | 65° |
| 2026-04-26 08:55 | 56.07894 | -166.46683 | 32236 ft | 473 kts | 65° |
| 2026-04-26 08:55 | 56.11456 | -166.36791 | 32248 ft | 473 kts | 65° |
| 2026-04-26 08:56 | 56.15020 | -166.26855 | 32251 ft | 474 kts | 65° |
| 2026-04-26 08:56 | 56.18576 | -166.16902 | 32258 ft | 474 kts | 65° |
| 2026-04-26 08:57 | 56.22356 | -166.07215 | 32270 ft | 480 kts | 61° |
| 2026-04-26 08:57 | 56.26407 | -165.97665 | 32273 ft | 480 kts | 60° |
| 2026-04-26 08:58 | 56.30479 | -165.88120 | 32284 ft | 481 kts | 60° |
| 2026-04-26 08:58 | 56.34549 | -165.78546 | 32285 ft | 481 kts | 60° |
| 2026-04-26 08:59 | 56.38609 | -165.68957 | 32309 ft | 482 kts | 60° |
| 2026-04-26 08:59 | 56.42641 | -165.59393 | 32310 ft | 482 kts | 60° |
| 2026-04-26 09:00 | 56.46688 | -165.49753 | 32316 ft | 482 kts | 61° |
| 2026-04-26 09:00 | 56.50736 | -165.40071 | 32333 ft | 482 kts | 61° |
| 2026-04-26 09:01 | 56.54782 | -165.30358 | 32342 ft | 483 kts | 61° |
| 2026-04-26 09:01 | 56.58822 | -165.20619 | 32351 ft | 483 kts | 61° |
| 2026-04-26 09:02 | 56.62834 | -165.10911 | 32359 ft | 484 kts | 61° |
| 2026-04-26 09:02 | 56.66871 | -165.01102 | 32372 ft | 485 kts | 61° |
| 2026-04-26 09:03 | 56.70902 | -164.91262 | 32379 ft | 486 kts | 61° |
| 2026-04-26 09:03 | 56.74935 | -164.81381 | 32392 ft | 486 kts | 61° |
| 2026-04-26 09:04 | 56.78941 | -164.71529 | 32399 ft | 488 kts | 61° |
| 2026-04-26 09:04 | 56.82978 | -164.61558 | 32420 ft | 489 kts | 61° |
| 2026-04-26 09:05 | 56.87015 | -164.51549 | 32418 ft | 490 kts | 61° |
| 2026-04-26 09:05 | 56.91049 | -164.41500 | 32422 ft | 490 kts | 61° |
| 2026-04-26 09:06 | 56.95060 | -164.31465 | 32449 ft | 492 kts | 61° |
| 2026-04-26 09:06 | 56.99110 | -164.21293 | 32563 ft | 496 kts | 61° |
| 2026-04-26 09:06 | 57.01140 | -164.16182 | 32704 ft | 497 kts | 61° |
| 2026-04-26 09:07 | 57.03181 | -164.11031 | 32848 ft | 499 kts | 61° |
| 2026-04-26 09:07 | 57.05220 | -164.05869 | 32992 ft | 501 kts | 61° |
| 2026-04-26 09:07 | 57.07269 | -164.00679 | 33144 ft | 502 kts | 61° |
| 2026-04-26 09:07 | 57.09290 | -163.95538 | 33303 ft | 504 kts | 61° |
| 2026-04-26 09:08 | 57.11343 | -163.90311 | 33454 ft | 505 kts | 61° |
| 2026-04-26 09:08 | 57.13404 | -163.85054 | 33621 ft | 506 kts | 61° |
| 2026-04-26 09:08 | 57.15458 | -163.79796 | 33805 ft | 505 kts | 60° |
| 2026-04-26 09:08 | 57.17505 | -163.74552 | 33991 ft | 505 kts | 60° |
| 2026-04-26 09:09 | 57.19560 | -163.69275 | 34177 ft | 505 kts | 60° |
| 2026-04-26 09:09 | 57.21599 | -163.64021 | 34353 ft | 505 kts | 60° |
| 2026-04-26 09:09 | 57.23635 | -163.58774 | 34438 ft | 502 kts | 60° |
| 2026-04-26 09:10 | 57.27673 | -163.48320 | 34524 ft | 503 kts | 60° |
| 2026-04-26 09:10 | 57.31727 | -163.37780 | 34546 ft | 503 kts | 60° |
| 2026-04-26 09:11 | 57.35777 | -163.27205 | 34566 ft | 503 kts | 60° |
| 2026-04-26 09:11 | 57.39815 | -163.16616 | 34570 ft | 504 kts | 60° |
| 2026-04-26 09:12 | 57.43822 | -163.06063 | 34581 ft | 504 kts | 60° |
| 2026-04-26 09:12 | 57.47848 | -162.95406 | 34605 ft | 504 kts | 60° |
| 2026-04-26 09:13 | 57.51871 | -162.84714 | 34611 ft | 505 kts | 60° |
| 2026-04-26 09:13 | 57.55887 | -162.73995 | 34626 ft | 505 kts | 59° |
| 2026-04-26 09:14 | 57.59872 | -162.63311 | 34637 ft | 505 kts | 59° |
| 2026-04-26 09:14 | 57.63874 | -162.52531 | 34647 ft | 505 kts | 60° |
| 2026-04-26 09:15 | 57.67867 | -162.41725 | 34658 ft | 506 kts | 59° |
| 2026-04-26 09:15 | 57.71856 | -162.30886 | 34667 ft | 506 kts | 59° |
| 2026-04-26 09:16 | 57.75837 | -162.20019 | 34683 ft | 506 kts | 59° |
| 2026-04-26 09:16 | 57.79778 | -162.09208 | 34690 ft | 506 kts | 59° |
| 2026-04-26 09:17 | 57.83744 | -161.98282 | 34699 ft | 507 kts | 59° |
| 2026-04-26 09:17 | 57.87705 | -161.87318 | 34705 ft | 508 kts | 59° |
| 2026-04-26 09:18 | 57.91660 | -161.76323 | 34716 ft | 508 kts | 59° |
| 2026-04-26 09:18 | 57.95588 | -161.65348 | 34724 ft | 509 kts | 59° |
| 2026-04-26 09:19 | 57.99542 | -161.54251 | 34735 ft | 510 kts | 59° |
| 2026-04-26 09:19 | 58.03487 | -161.43130 | 34738 ft | 510 kts | 59° |
| 2026-04-26 09:20 | 58.07419 | -161.31995 | 34753 ft | 509 kts | 59° |
| 2026-04-26 09:20 | 58.11328 | -161.20870 | 34757 ft | 508 kts | 59° |
| 2026-04-26 09:21 | 58.15198 | -161.09805 | 34769 ft | 507 kts | 59° |
| 2026-04-26 09:21 | 58.19085 | -160.98638 | 34777 ft | 507 kts | 59° |
| 2026-04-26 09:22 | 58.22953 | -160.87481 | 34788 ft | 506 kts | 59° |
| 2026-04-26 09:22 | 58.26779 | -160.76383 | 34803 ft | 506 kts | 59° |
| 2026-04-26 09:23 | 58.30623 | -160.65182 | 34810 ft | 506 kts | 58° |
| 2026-04-26 09:23 | 58.34451 | -160.53981 | 34819 ft | 505 kts | 58° |
| 2026-04-26 09:24 | 58.38270 | -160.42751 | 34831 ft | 505 kts | 58° |
| 2026-04-26 09:24 | 58.42075 | -160.31505 | 34840 ft | 504 kts | 58° |
| 2026-04-26 09:25 | 58.45842 | -160.20323 | 34848 ft | 504 kts | 58° |
| 2026-04-26 09:25 | 58.49623 | -160.09045 | 34855 ft | 504 kts | 58° |
| 2026-04-26 09:26 | 58.53398 | -159.97730 | 34864 ft | 504 kts | 58° |
| 2026-04-26 09:26 | 58.57140 | -159.86461 | 34866 ft | 505 kts | 58° |
| 2026-04-26 09:27 | 58.60896 | -159.75094 | 34877 ft | 505 kts | 58° |
| 2026-04-26 09:27 | 58.64641 | -159.63709 | 34885 ft | 505 kts | 58° |
| 2026-04-26 09:28 | 58.68381 | -159.52279 | 34885 ft | 505 kts | 58° |
| 2026-04-26 09:28 | 58.72106 | -159.40842 | 34898 ft | 504 kts | 58° |
| 2026-04-26 09:29 | 58.75792 | -159.29470 | 34905 ft | 503 kts | 58° |
| 2026-04-26 09:29 | 58.79484 | -159.18023 | 34913 ft | 503 kts | 58° |
| 2026-04-26 09:30 | 58.83167 | -159.06551 | 34923 ft | 502 kts | 58° |
| 2026-04-26 09:30 | 58.86808 | -158.95149 | 34925 ft | 502 kts | 58° |
| 2026-04-26 09:31 | 58.90464 | -158.83650 | 34923 ft | 502 kts | 58° |
| 2026-04-26 09:31 | 58.94105 | -158.72139 | 34925 ft | 501 kts | 58° |
| 2026-04-26 09:32 | 58.97118 | -158.62570 | 34935 ft | 501 kts | 58° |
| 2026-04-26 09:32 | 59.00724 | -158.51011 | 34934 ft | 501 kts | 58° |
| 2026-04-26 09:33 | 59.04876 | -158.37518 | 34934 ft | 500 kts | 58° |
| 2026-04-26 09:33 | 59.08433 | -158.25888 | 34939 ft | 500 kts | 58° |
| 2026-04-26 09:34 | 59.11380 | -158.16213 | 34954 ft | 500 kts | 58° |
| 2026-04-26 09:34 | 59.14909 | -158.04568 | 34949 ft | 499 kts | 58° |
| 2026-04-26 09:35 | 59.19002 | -157.90998 | 34963 ft | 499 kts | 58° |
| 2026-04-26 09:35 | 59.22503 | -157.79323 | 34971 ft | 499 kts | 58° |
| 2026-04-26 09:36 | 59.25404 | -157.69603 | 34975 ft | 498 kts | 58° |
| 2026-04-26 09:36 | 59.28883 | -157.57893 | 34978 ft | 498 kts | 58° |
| 2026-04-26 09:37 | 59.32354 | -157.46151 | 34975 ft | 498 kts | 58° |
| 2026-04-26 09:37 | 59.35806 | -157.34416 | 34972 ft | 498 kts | 58° |
| 2026-04-26 09:38 | 59.39229 | -157.22719 | 34974 ft | 497 kts | 58° |
| 2026-04-26 09:38 | 59.42661 | -157.10931 | 34977 ft | 497 kts | 58° |
| 2026-04-26 09:39 | 59.46081 | -156.99123 | 34985 ft | 497 kts | 58° |
| 2026-04-26 09:39 | 59.49486 | -156.87307 | 34991 ft | 497 kts | 58° |
| 2026-04-26 09:40 | 59.52860 | -156.75539 | 34998 ft | 496 kts | 58° |
| 2026-04-26 09:40 | 59.56239 | -156.63690 | 35007 ft | 496 kts | 58° |
| 2026-04-26 09:41 | 59.59608 | -156.51818 | 35010 ft | 496 kts | 58° |
| 2026-04-26 09:41 | 59.62959 | -156.39948 | 35015 ft | 495 kts | 58° |
| 2026-04-26 09:42 | 59.66280 | -156.28118 | 35008 ft | 494 kts | 58° |
| 2026-04-26 09:42 | 59.69601 | -156.16231 | 35027 ft | 494 kts | 58° |
| 2026-04-26 09:43 | 59.72912 | -156.04318 | 35014 ft | 494 kts | 58° |
| 2026-04-26 09:43 | 59.76211 | -155.92384 | 35022 ft | 493 kts | 58° |
| 2026-04-26 09:44 | 59.79498 | -155.80429 | 35014 ft | 493 kts | 58° |
| 2026-04-26 09:44 | 59.82756 | -155.68520 | 35029 ft | 494 kts | 58° |
| 2026-04-26 09:45 | 59.86022 | -155.56521 | 35027 ft | 493 kts | 58° |
| 2026-04-26 09:45 | 59.89274 | -155.44499 | 35033 ft | 493 kts | 58° |
| 2026-04-26 09:46 | 59.92516 | -155.32455 | 35041 ft | 493 kts | 58° |
| 2026-04-26 09:46 | 59.95732 | -155.20447 | 35044 ft | 493 kts | 58° |
| 2026-04-26 09:47 | 59.98948 | -155.08366 | 35045 ft | 493 kts | 58° |
| 2026-04-26 09:47 | 60.02150 | -154.96282 | 35046 ft | 492 kts | 58° |
| 2026-04-26 09:48 | 60.05345 | -154.84153 | 35035 ft | 492 kts | 58° |
| 2026-04-26 09:48 | 60.08500 | -154.72112 | 35032 ft | 491 kts | 58° |
| 2026-04-26 09:49 | 60.11658 | -154.59988 | 35014 ft | 491 kts | 58° |
| 2026-04-26 09:49 | 60.14808 | -154.47843 | 35004 ft | 491 kts | 58° |
| 2026-04-26 09:50 | 60.17944 | -154.35680 | 35004 ft | 490 kts | 58° |
| 2026-04-26 09:50 | 60.21063 | -154.23515 | 35004 ft | 489 kts | 59° |
| 2026-04-26 09:51 | 60.24142 | -154.11436 | 35002 ft | 488 kts | 59° |
| 2026-04-26 09:51 | 60.27225 | -153.99280 | 35017 ft | 488 kts | 59° |
| 2026-04-26 09:52 | 60.30299 | -153.87084 | 35051 ft | 487 kts | 59° |
| 2026-04-26 09:52 | 60.34868 | -153.68914 | 35075 ft | 486 kts | 59° |
| 2026-04-26 09:53 | 60.37909 | -153.56755 | 35077 ft | 485 kts | 59° |
| 2026-04-26 09:53 | 60.40940 | -153.44573 | 35070 ft | 484 kts | 59° |
| 2026-04-26 09:54 | 60.43944 | -153.32417 | 35100 ft | 484 kts | 59° |
| 2026-04-26 09:54 | 60.46927 | -153.20288 | 35091 ft | 483 kts | 59° |
| 2026-04-26 09:55 | 60.49907 | -153.08111 | 35086 ft | 481 kts | 59° |
| 2026-04-26 09:55 | 60.52874 | -152.95918 | 35086 ft | 482 kts | 59° |
| 2026-04-26 09:56 | 60.55825 | -152.83710 | 35108 ft | 482 kts | 59° |
| 2026-04-26 09:56 | 60.58770 | -152.71471 | 35103 ft | 481 kts | 59° |
| 2026-04-26 09:57 | 60.61685 | -152.59290 | 35104 ft | 482 kts | 60° |
| 2026-04-26 09:57 | 60.64608 | -152.46998 | 35102 ft | 482 kts | 60° |
| 2026-04-26 09:58 | 60.67522 | -152.34680 | 35100 ft | 482 kts | 60° |
| 2026-04-26 09:58 | 60.70426 | -152.22331 | 34785 ft | 482 kts | 60° |
| 2026-04-26 09:59 | 60.71876 | -152.16126 | 33914 ft | 486 kts | 59° |
| 2026-04-26 09:59 | 60.73335 | -152.09881 | 33025 ft | 488 kts | 59° |
| 2026-04-26 09:59 | 60.74777 | -152.03690 | 32199 ft | 489 kts | 59° |
| 2026-04-26 09:59 | 60.76237 | -151.97396 | 31365 ft | 490 kts | 58° |
| 2026-04-26 10:00 | 60.77694 | -151.91105 | 30547 ft | 490 kts | 58° |
| 2026-04-26 10:00 | 60.79152 | -151.84788 | 29635 ft | 491 kts | 58° |
| 2026-04-26 10:00 | 60.80602 | -151.78491 | 28919 ft | 486 kts | 58° |
| 2026-04-26 10:00 | 60.82030 | -151.72265 | 28245 ft | 480 kts | 58° |